createdAt,value
2018-04-18T00:02:51.570Z,74.83
2018-04-18T00:05:55.875Z,75.05
2018-04-18T00:08:59.224Z,75.17
2018-04-18T00:12:02.550Z,75.21
2018-04-18T00:15:05.925Z,75.07
2018-04-18T00:18:09.405Z,75.19
2018-04-18T00:21:13.537Z,75.19
2018-04-18T00:24:16.901Z,75.33
2018-04-18T00:27:20.275Z,75.43
2018-04-18T00:30:23.753Z,75.62
2018-04-18T00:33:27.128Z,75.80
2018-04-18T00:36:30.493Z,75.75
2018-04-18T00:39:33.853Z,75.96
2018-04-18T00:42:37.448Z,76.18
2018-04-18T00:45:40.844Z,76.32
2018-04-18T00:48:44.216Z,76.58
2018-04-18T00:51:48.337Z,76.85
2018-04-18T00:54:52.479Z,76.97
2018-04-18T00:57:55.854Z,77.15
2018-04-18T01:01:00.069Z,77.32
2018-04-18T01:04:04.198Z,77.25
2018-04-18T01:07:07.561Z,77.37
2018-04-18T01:10:10.940Z,77.08
2018-04-18T01:13:14.297Z,76.86
2018-04-18T01:16:17.660Z,76.81
2018-04-18T01:19:21.023Z,76.69
2018-04-18T01:22:24.364Z,76.46
2018-04-18T01:25:28.527Z,76.44
2018-04-18T01:28:31.883Z,76.60
2018-04-18T01:35:10.007Z,76.35
2018-04-18T01:38:14.164Z,76.51
2018-04-18T01:41:17.482Z,76.66
2018-04-18T01:44:20.806Z,76.90
2018-04-18T01:47:24.893Z,76.87
2018-04-18T01:50:28.205Z,77.01
2018-04-18T01:53:31.501Z,77.22
2018-04-18T01:56:34.886Z,77.35
2018-04-18T01:59:38.287Z,77.41
2018-04-18T02:02:41.781Z,77.20
2018-04-18T02:05:45.099Z,76.70
2018-04-18T02:08:48.429Z,76.14
2018-04-18T02:11:52.605Z,75.77
2018-04-18T02:14:55.997Z,75.90
2018-04-18T02:17:59.301Z,75.69
2018-04-18T02:21:02.604Z,75.58
2018-04-18T02:24:06.727Z,75.86
2018-04-18T02:27:10.108Z,75.85
2018-04-18T02:30:13.437Z,76.13
2018-04-18T02:33:16.797Z,76.18
2018-04-18T02:36:20.110Z,76.26
2018-04-18T02:39:23.514Z,76.35
2018-04-18T02:42:26.892Z,76.60
2018-04-18T02:45:30.196Z,76.57
2018-04-18T02:48:33.504Z,76.56
2018-04-18T02:51:36.827Z,76.77
2018-04-18T02:54:40.139Z,76.96
2018-04-18T02:57:44.981Z,77.20
2018-04-18T03:00:48.331Z,77.35
2018-04-18T03:03:51.659Z,77.34
2018-04-18T03:06:55.745Z,77.56
2018-04-18T03:09:59.054Z,78.17
2018-04-18T03:13:02.377Z,78.36
2018-04-18T03:16:06.486Z,78.52
2018-04-18T03:19:10.548Z,78.60
2018-04-18T03:22:13.849Z,78.58
2018-04-18T03:25:17.248Z,78.61
2018-04-18T03:28:20.562Z,78.73
2018-04-18T03:31:23.870Z,78.89
2018-04-18T03:34:27.273Z,78.99
2018-04-18T03:37:30.581Z,79.08
2018-04-18T03:40:33.976Z,79.16
2018-04-18T03:43:37.286Z,78.73
2018-04-18T03:46:40.608Z,78.13
2018-04-18T03:49:43.954Z,77.91
2018-04-18T03:52:47.358Z,77.97
2018-04-18T03:55:50.665Z,77.94
2018-04-18T03:58:54.049Z,78.20
2018-04-18T04:01:58.269Z,78.31
2018-04-18T04:08:12.138Z,78.55
2018-04-18T04:11:15.461Z,78.62
2018-04-18T04:14:19.533Z,78.95
2018-04-18T04:17:40.777Z,79.16
2018-04-18T04:21:02.002Z,79.40
2018-04-18T04:24:24.845Z,79.64
2018-04-18T04:27:28.247Z,79.93
2018-04-18T04:30:31.556Z,80.17
2018-04-18T04:33:34.877Z,80.41
2018-04-18T04:36:38.969Z,80.50
2018-04-18T04:39:42.296Z,80.59
2018-04-18T04:42:46.374Z,80.96
2018-04-18T04:45:50.692Z,80.76
2018-04-18T04:48:54.084Z,80.68
2018-04-18T04:51:57.484Z,80.43
2018-04-18T04:55:00.818Z,80.12
2018-04-18T04:58:04.150Z,79.79
2018-04-18T05:01:07.460Z,79.50
2018-04-18T05:04:10.779Z,78.91
2018-04-18T05:07:14.097Z,78.48
2018-04-18T05:10:17.511Z,78.23
2018-04-18T05:13:20.804Z,78.09
2018-04-18T05:16:24.183Z,77.58
2018-04-18T05:19:27.586Z,77.27
2018-04-18T05:22:30.903Z,77.20
2018-04-18T05:25:34.291Z,77.13
2018-04-18T05:28:37.609Z,77.24
2018-04-18T05:31:41.694Z,76.80
2018-04-18T05:34:45.000Z,76.33
2018-04-18T05:37:48.313Z,75.83
2018-04-18T05:40:53.141Z,75.21
2018-04-18T05:43:56.543Z,74.70
2018-04-18T05:46:59.870Z,74.29
2018-04-18T05:50:04.034Z,73.22
2018-04-18T05:53:07.455Z,72.83
2018-04-18T05:56:10.837Z,72.33
2018-04-18T05:59:14.180Z,72.13
2018-04-18T06:02:18.349Z,71.80
2018-04-18T06:05:21.749Z,71.46
2018-04-18T06:08:25.057Z,70.83
2018-04-18T06:11:28.373Z,70.65
2018-04-18T06:14:31.701Z,70.06
2018-04-18T06:17:35.068Z,69.42
2018-04-18T06:20:38.415Z,68.42
2018-04-18T06:23:41.737Z,67.30
2018-04-18T06:26:45.161Z,67.39
2018-04-18T06:29:48.538Z,65.67
2018-04-18T06:32:51.971Z,65.40
2018-04-18T06:35:55.294Z,65.41
2018-04-18T06:38:58.648Z,64.11
2018-04-18T06:42:02.046Z,63.73
2018-04-18T06:45:05.445Z,63.46
2018-04-18T06:48:08.778Z,61.95
2018-04-18T06:51:12.892Z,61.57
2018-04-18T06:54:16.210Z,61.48
2018-04-18T06:57:19.560Z,60.83
2018-04-18T07:00:22.887Z,60.37
2018-04-18T07:03:26.997Z,59.67
2018-04-18T07:06:30.302Z,59.88
2018-04-18T07:09:34.542Z,58.85
2018-04-18T07:12:37.883Z,58.85
2018-04-18T07:15:41.195Z,57.91
2018-04-18T07:18:44.526Z,57.96
2018-04-18T07:21:48.601Z,56.79
2018-04-18T07:24:52.063Z,56.84
2018-04-18T07:27:55.415Z,56.52
2018-04-18T07:30:58.811Z,56.33
2018-04-18T07:34:02.192Z,56.59
2018-04-18T07:37:05.519Z,56.46
2018-04-18T07:40:08.976Z,56.54
2018-04-18T07:43:13.027Z,56.65
2018-04-18T07:46:16.412Z,56.23
2018-04-18T07:49:19.870Z,55.85
2018-04-18T07:52:23.206Z,56.05
2018-04-18T07:55:26.534Z,55.89
2018-04-18T07:58:29.841Z,56.01
2018-04-18T08:01:33.222Z,55.93
2018-04-18T08:04:36.570Z,55.46
2018-04-18T08:07:39.896Z,55.92
2018-04-18T08:10:43.209Z,55.49
2018-04-18T08:13:46.557Z,55.22
2018-04-18T08:16:49.872Z,55.13
2018-04-18T08:19:53.190Z,56.03
2018-04-18T08:22:56.507Z,55.50
2018-04-18T08:25:59.894Z,56.14
2018-04-18T08:29:03.224Z,56.38
2018-04-18T08:32:07.365Z,55.75
2018-04-18T08:35:10.673Z,55.76
2018-04-18T08:38:14.024Z,54.92
2018-04-18T08:41:17.405Z,55.14
2018-04-18T08:44:20.812Z,55.69
2018-04-18T08:47:24.153Z,54.57
2018-04-18T08:50:28.281Z,55.18
2018-04-18T08:53:31.614Z,54.88
2018-04-18T08:56:35.077Z,55.48
2018-04-18T08:59:38.416Z,55.67
2018-04-18T09:02:41.892Z,55.54
2018-04-18T09:05:45.204Z,55.70
2018-04-18T09:08:48.633Z,56.05
2018-04-18T09:11:51.972Z,56.16
2018-04-18T09:14:55.419Z,55.85
2018-04-18T09:17:58.760Z,54.96
2018-04-18T09:21:02.993Z,54.80
2018-04-18T09:24:06.310Z,54.76
2018-04-18T09:27:09.758Z,54.17
2018-04-18T09:30:13.084Z,54.81
2018-04-18T09:33:17.260Z,54.50
2018-04-18T09:36:20.607Z,54.16
2018-04-18T09:39:24.109Z,54.26
2018-04-18T09:42:27.447Z,53.35
2018-04-18T09:45:30.851Z,53.55
2018-04-18T09:48:34.258Z,53.33
2018-04-18T09:51:37.665Z,54.85
2018-04-18T09:54:42.489Z,53.91
2018-04-18T09:57:45.843Z,52.85
2018-04-18T10:00:54.650Z,53.46
2018-04-18T10:04:04.218Z,53.37
2018-04-18T10:07:07.535Z,53.94
2018-04-18T10:10:10.887Z,53.93
2018-04-18T10:13:14.968Z,54.40
2018-04-18T10:16:18.421Z,53.64
2018-04-18T10:19:21.698Z,53.13
2018-04-18T10:22:25.038Z,53.62
2018-04-18T10:25:28.358Z,52.84
2018-04-18T10:28:31.720Z,52.23
2018-04-18T10:31:35.071Z,52.63
2018-04-18T10:34:38.404Z,53.81
2018-04-18T10:37:42.490Z,53.23
2018-04-18T10:40:45.841Z,54.00
2018-04-18T10:43:49.156Z,54.29
2018-04-18T10:46:52.494Z,53.29
2018-04-18T10:49:55.874Z,54.04
2018-04-18T10:52:59.883Z,53.50
2018-04-18T10:56:04.054Z,53.39
2018-04-18T10:59:08.219Z,53.05
2018-04-18T11:02:11.546Z,53.21
2018-04-18T11:05:14.934Z,53.67
2018-04-18T11:08:18.378Z,55.27
2018-04-18T11:11:21.715Z,54.17
2018-04-18T11:14:25.175Z,54.99
2018-04-18T11:17:28.637Z,54.56
2018-04-18T11:20:32.028Z,54.54
2018-04-18T11:23:35.438Z,54.24
2018-04-18T11:26:38.760Z,54.56
2018-04-18T11:29:42.916Z,54.73
2018-04-18T11:32:47.059Z,54.81
2018-04-18T11:35:50.474Z,54.12
2018-04-18T11:38:53.854Z,54.29
2018-04-18T11:41:57.201Z,54.52
2018-04-18T11:45:00.609Z,53.92
2018-04-18T11:48:04.055Z,53.70
2018-04-18T11:51:07.357Z,54.48
2018-04-18T11:54:10.692Z,54.70
2018-04-18T11:57:14.878Z,54.58
2018-04-18T12:00:18.235Z,53.96
2018-04-18T12:03:21.565Z,53.34
2018-04-18T12:06:24.895Z,54.14
2018-04-18T12:09:28.206Z,53.98
2018-04-18T12:12:32.397Z,53.66
2018-04-18T12:15:35.731Z,53.38
2018-04-18T12:18:39.186Z,53.83
2018-04-18T12:21:42.510Z,53.87
2018-04-18T12:24:45.843Z,53.82
2018-04-18T12:27:49.171Z,54.31
2018-04-18T12:30:52.640Z,53.31
2018-04-18T12:33:55.967Z,53.41
2018-04-18T12:36:59.391Z,52.97
2018-04-18T12:40:02.771Z,53.56
2018-04-18T12:43:06.231Z,53.59
2018-04-18T12:46:09.673Z,53.03
2018-04-18T12:49:13.026Z,52.93
2018-04-18T12:52:17.197Z,52.75
2018-04-18T12:55:20.534Z,53.96
2018-04-18T12:58:24.708Z,53.07
2018-04-18T13:01:28.061Z,51.95
2018-04-18T13:04:31.398Z,52.52
2018-04-18T13:07:34.737Z,51.82
2018-04-18T13:10:38.829Z,52.09
2018-04-18T13:13:42.226Z,51.84
2018-04-18T13:16:45.539Z,53.26
2018-04-18T13:19:48.927Z,52.86
2018-04-18T13:22:52.248Z,53.37
2018-04-18T13:25:56.430Z,51.82
2018-04-18T13:28:59.849Z,50.37
2018-04-18T13:32:03.198Z,51.00
2018-04-18T13:35:06.518Z,51.23
2018-04-18T13:38:09.874Z,50.68
2018-04-18T13:41:14.041Z,51.60
2018-04-18T13:44:17.383Z,49.25
2018-04-18T13:47:21.456Z,50.61
2018-04-18T13:50:24.870Z,50.71
2018-04-18T13:53:28.280Z,50.01
2018-04-18T13:56:31.621Z,51.06
2018-04-18T13:59:34.965Z,50.74
2018-04-18T14:02:38.364Z,49.99
2018-04-18T14:05:41.775Z,50.38
2018-04-18T14:08:45.165Z,49.88
2018-04-18T14:11:48.512Z,50.73
2018-04-18T14:14:51.850Z,50.74
2018-04-18T14:17:55.264Z,50.35
2018-04-18T14:20:58.622Z,49.90
2018-04-18T14:24:01.966Z,49.95
2018-04-18T14:27:05.311Z,50.35
2018-04-18T14:30:08.660Z,51.02
2018-04-18T14:33:12.009Z,50.92
2018-04-18T14:36:15.342Z,50.73
2018-04-18T14:39:18.709Z,49.98
2018-04-18T14:42:22.244Z,49.63
2018-04-18T14:45:25.613Z,49.89
2018-04-18T14:48:28.938Z,49.47
2018-04-18T14:51:32.348Z,49.08
2018-04-18T14:54:35.754Z,49.32
2018-04-18T14:57:39.105Z,48.57
2018-04-18T15:00:42.470Z,49.30
2018-04-18T15:03:45.802Z,49.57
2018-04-18T15:06:49.122Z,49.20
2018-04-18T15:09:52.462Z,48.66
2018-04-18T15:12:55.765Z,49.28
2018-04-18T15:15:59.122Z,49.11
2018-04-18T15:19:02.459Z,48.68
2018-04-18T15:22:05.841Z,48.02
2018-04-18T15:25:09.265Z,46.24
2018-04-18T15:28:12.607Z,44.87
2018-04-18T15:31:15.931Z,42.04
2018-04-18T15:34:19.293Z,41.48
2018-04-18T15:37:22.600Z,40.96
2018-04-18T15:40:26.059Z,40.65
2018-04-18T15:43:29.445Z,39.10
2018-04-18T15:46:32.834Z,38.78
2018-04-18T15:49:36.240Z,38.43
2018-04-18T15:52:39.691Z,38.74
2018-04-18T15:55:43.025Z,39.31
2018-04-18T15:58:46.401Z,38.19
2018-04-18T16:01:49.722Z,37.87
2018-04-18T16:04:53.133Z,37.60
2018-04-18T16:07:56.458Z,36.91
2018-04-18T16:10:59.794Z,36.30
2018-04-18T16:14:03.121Z,36.53
2018-04-18T16:17:06.466Z,37.83
2018-04-18T16:20:10.550Z,38.38
2018-04-18T16:23:13.957Z,39.27
2018-04-18T16:26:17.293Z,39.80
2018-04-18T16:29:44.583Z,41.42
2018-04-18T16:32:47.910Z,43.50
2018-04-18T16:35:51.254Z,45.36
2018-04-18T16:38:54.597Z,46.49
2018-04-18T16:41:57.943Z,43.65
2018-04-18T16:45:01.306Z,42.41
2018-04-18T16:48:04.628Z,39.83
2018-04-18T16:51:08.725Z,38.18
2018-04-18T16:54:12.109Z,37.05
2018-04-18T16:57:15.517Z,37.23
2018-04-18T17:00:18.929Z,36.45
2018-04-18T17:03:22.313Z,36.51
2018-04-18T17:06:25.670Z,36.80
2018-04-18T17:09:29.013Z,36.33
2018-04-18T17:12:32.401Z,36.23
2018-04-18T17:15:36.524Z,36.00
2018-04-18T17:18:39.925Z,35.80
2018-04-18T17:21:43.313Z,34.95
2018-04-18T17:24:46.674Z,35.98
2018-04-18T17:27:49.994Z,37.60
2018-04-18T17:30:53.331Z,38.79
2018-04-18T17:33:56.763Z,39.27
2018-04-18T17:37:00.655Z,39.43
2018-04-18T17:40:04.031Z,40.97
2018-04-18T17:43:07.370Z,42.37
2018-04-18T17:46:11.557Z,44.15
2018-04-18T17:49:14.936Z,46.39
2018-04-18T17:52:18.334Z,47.79
2018-04-18T17:55:21.675Z,50.25
2018-04-18T17:58:26.572Z,51.50
2018-04-18T18:01:29.921Z,53.14
2018-04-18T18:04:34.084Z,54.17
2018-04-18T18:07:37.531Z,54.93
2018-04-18T18:10:41.614Z,56.10
2018-04-18T18:13:44.964Z,57.03
2018-04-18T18:16:48.286Z,57.59
2018-04-18T18:19:51.631Z,58.13
2018-04-18T18:22:55.017Z,59.11
2018-04-18T18:25:58.413Z,59.45
2018-04-18T18:29:01.814Z,60.02
2018-04-18T18:32:05.250Z,60.59
2018-04-18T18:35:08.627Z,60.81
2018-04-18T18:38:11.993Z,61.54
2018-04-18T18:41:15.324Z,62.20
2018-04-18T18:44:18.679Z,63.31
2018-04-18T18:47:22.002Z,63.47
2018-04-18T18:50:25.392Z,63.52
2018-04-18T18:53:28.704Z,64.21
2018-04-18T18:56:32.110Z,64.91
2018-04-18T18:59:35.443Z,65.60
2018-04-18T19:02:39.618Z,66.11
2018-04-18T19:05:42.944Z,66.26
2018-04-18T19:08:46.334Z,66.70
2018-04-18T19:11:49.729Z,67.41
2018-04-18T19:14:53.109Z,67.72
2018-04-18T19:17:56.435Z,68.03
2018-04-18T19:21:00.575Z,68.48
2018-04-18T19:24:04.666Z,69.05
2018-04-18T19:27:08.053Z,69.41
2018-04-18T19:30:11.459Z,69.86
2018-04-18T19:33:14.858Z,70.37
2018-04-18T19:36:18.302Z,70.75
2018-04-18T19:39:21.658Z,70.89
2018-04-18T19:42:26.495Z,71.03
2018-04-18T19:45:29.885Z,71.52
2018-04-18T19:48:33.271Z,71.73
2018-04-18T19:51:38.948Z,72.00
2018-04-18T19:54:42.339Z,72.33
2018-04-18T19:57:45.756Z,72.53
2018-04-18T20:00:49.132Z,72.29
2018-04-18T20:03:53.562Z,72.43
2018-04-18T20:06:56.904Z,72.54
2018-04-18T20:10:01.013Z,72.78
2018-04-18T20:13:05.086Z,72.87
2018-04-18T20:16:08.429Z,73.21
2018-04-18T20:19:12.501Z,73.68
2018-04-18T20:22:20.388Z,74.33
2018-04-18T20:25:23.816Z,74.70
2018-04-18T20:28:27.218Z,74.83
2018-04-18T20:31:30.558Z,74.90
2018-04-18T20:34:33.922Z,75.18
2018-04-18T20:37:37.241Z,75.47
2018-04-18T20:40:41.956Z,75.87
2018-04-18T20:43:45.364Z,75.86
2018-04-18T20:46:49.521Z,76.05
2018-04-18T20:49:52.962Z,76.60
2018-04-18T20:52:57.098Z,77.03
2018-04-18T20:56:00.420Z,77.37
2018-04-18T20:59:04.003Z,77.36
2018-04-18T21:02:08.093Z,77.46
2018-04-18T21:05:11.483Z,78.05
2018-04-18T21:08:14.808Z,78.31
2018-04-18T21:11:19.725Z,78.26
2018-04-18T21:14:23.144Z,78.28
2018-04-18T21:17:26.528Z,78.37
2018-04-18T21:20:29.930Z,78.44
2018-04-18T21:23:33.328Z,78.60
2018-04-18T21:26:37.443Z,78.87
2018-04-18T21:29:40.852Z,79.10
2018-04-18T21:32:44.399Z,79.17
2018-04-18T21:35:47.763Z,79.32
2018-04-18T21:38:51.086Z,79.50
2018-04-18T21:41:55.197Z,79.73
2018-04-18T21:44:59.316Z,80.11
2018-04-18T21:48:03.421Z,80.61
2018-04-18T21:51:07.609Z,80.98
2018-04-18T21:54:10.950Z,80.96
2018-04-18T21:57:15.116Z,81.07
2018-04-18T22:00:18.522Z,81.09
2018-04-18T22:03:21.830Z,80.80
2018-04-18T22:06:25.167Z,80.55
2018-04-18T22:09:29.241Z,80.75
2018-04-18T22:12:32.647Z,81.19
2018-04-18T22:15:36.032Z,81.48
2018-04-18T22:18:39.390Z,81.66
2018-04-18T22:21:42.706Z,81.77
2018-04-18T22:24:46.140Z,81.96
2018-04-18T22:27:50.225Z,82.23
2018-04-18T22:30:53.566Z,82.29
2018-04-18T22:33:56.947Z,82.50
2018-04-18T22:37:00.284Z,82.53
2018-04-18T22:40:04.366Z,82.51
2018-04-18T22:43:07.715Z,82.73
2018-04-18T22:46:11.039Z,82.92
2018-04-18T22:49:14.382Z,83.24
2018-04-18T22:52:17.766Z,83.51
2018-04-18T22:55:21.129Z,83.52
2018-04-18T22:58:24.604Z,82.92
2018-04-18T23:01:28.729Z,82.86
2018-04-18T23:04:32.050Z,82.97
2018-04-18T23:07:35.469Z,83.09
2018-04-18T23:10:38.874Z,83.23
2018-04-18T23:13:42.211Z,83.39
2018-04-18T23:16:46.337Z,83.96
2018-04-18T23:19:50.563Z,84.29
2018-04-18T23:22:53.896Z,84.40
2018-04-18T23:25:57.405Z,84.46
2018-04-18T23:29:00.815Z,84.36
2018-04-18T23:32:05.665Z,84.48
2018-04-18T23:35:10.481Z,84.45
2018-04-18T23:38:13.881Z,84.93
2018-04-18T23:41:17.267Z,84.96
2018-04-18T23:44:20.675Z,84.91
2018-04-18T23:47:23.984Z,84.79
2018-04-18T23:50:27.319Z,85.14
2018-04-18T23:53:31.488Z,85.56
2018-04-18T23:56:34.891Z,85.89
2018-04-18T23:59:38.281Z,86.26
